createdAt,value
2022-10-22T00:02:21.552Z,10.50
2022-10-22T00:04:49.405Z,11.17
2022-10-22T00:07:17.789Z,12.17
2022-10-22T00:09:45.026Z,16.37
2022-10-22T00:12:12.632Z,15.70
2022-10-22T00:14:39.449Z,12.07
2022-10-22T00:17:10.473Z,12.70
2022-10-22T00:19:38.546Z,12.17
2022-10-22T00:22:05.843Z,19.83
2022-10-22T00:24:34.237Z,22.67
2022-10-22T00:27:01.443Z,34.60
2022-10-22T00:29:28.285Z,96.73
2022-10-22T00:34:27.597Z,38.73
2022-10-22T00:36:54.638Z,23.37
2022-10-22T00:39:25.096Z,19.23
2022-10-22T00:41:54.144Z,21.17
2022-10-22T00:45:00.363Z,18.00
2022-10-22T00:47:30.334Z,15.17
2022-10-22T00:49:58.926Z,10.63
2022-10-22T00:52:25.776Z,10.63
2022-10-22T00:54:52.920Z,8.37
2022-10-22T00:57:20.874Z,8.90
2022-10-22T00:59:48.777Z,11.33
2022-10-22T01:02:16.294Z,9.47
2022-10-22T01:04:43.379Z,7.17
2022-10-22T01:07:20.540Z,7.93
2022-10-22T01:10:02.913Z,8.77
2022-10-22T01:12:51.036Z,10.50
2022-10-22T01:15:31.027Z,9.23
2022-10-22T01:18:21.244Z,8.90
2022-10-22T01:20:50.653Z,8.10
2022-10-22T01:23:24.617Z,7.97
2022-10-22T01:25:58.466Z,7.63
2022-10-22T01:28:49.946Z,7.73
2022-10-22T01:31:18.208Z,7.23
2022-10-22T01:33:46.880Z,10.70
2022-10-22T01:36:15.407Z,10.40
2022-10-22T01:38:42.945Z,7.93
2022-10-22T01:41:11.034Z,9.40
2022-10-22T01:43:37.781Z,9.00
2022-10-22T01:46:07.040Z,9.20
2022-10-22T01:48:52.791Z,8.60
2022-10-22T01:51:41.396Z,8.30
2022-10-22T01:54:30.918Z,9.33
2022-10-22T01:57:19.453Z,10.50
2022-10-22T01:59:51.760Z,11.43
2022-10-22T02:02:41.083Z,8.43
2022-10-22T02:05:49.129Z,8.50
2022-10-22T02:08:23.377Z,9.40
2022-10-22T02:10:51.500Z,9.47
2022-10-22T02:13:31.950Z,12.27
2022-10-22T02:15:59.938Z,9.07
2022-10-22T02:18:30.894Z,11.07
2022-10-22T02:20:59.090Z,20.77
2022-10-22T02:23:26.588Z,22.53
2022-10-22T02:26:01.974Z,20.33
2022-10-22T02:29:02.523Z,19.97
2022-10-22T02:31:33.906Z,16.30
2022-10-22T02:34:08.141Z,15.30
2022-10-22T02:36:36.488Z,16.20
2022-10-22T02:39:03.833Z,13.57
2022-10-22T02:41:31.218Z,11.97
2022-10-22T02:43:58.022Z,11.90
2022-10-22T02:46:25.733Z,10.00
2022-10-22T02:48:52.433Z,9.97
2022-10-22T02:51:19.145Z,11.17
2022-10-22T02:53:45.857Z,10.90
2022-10-22T02:56:13.654Z,11.70
2022-10-22T02:58:40.337Z,13.67
2022-10-22T03:01:07.378Z,9.60
2022-10-22T03:03:34.116Z,10.60
2022-10-22T03:06:01.001Z,14.07
2022-10-22T03:08:27.775Z,10.30
2022-10-22T03:10:54.476Z,12.33
2022-10-22T03:13:21.236Z,9.70
2022-10-22T03:15:51.447Z,12.10
2022-10-22T03:18:18.344Z,12.10
2022-10-22T03:20:45.208Z,11.40
2022-10-22T03:23:15.067Z,11.27
2022-10-22T03:25:43.524Z,11.07
2022-10-22T03:28:13.290Z,11.37
2022-10-22T03:30:39.963Z,9.63
2022-10-22T03:33:06.689Z,12.20
2022-10-22T03:35:39.779Z,11.40
2022-10-22T03:38:06.618Z,9.87
2022-10-22T03:40:33.418Z,12.20
2022-10-22T03:43:00.229Z,9.83
2022-10-22T03:45:27.222Z,11.13
2022-10-22T03:47:54.033Z,9.27
2022-10-22T03:50:20.749Z,10.23
2022-10-22T03:52:47.454Z,12.03
2022-10-22T03:55:14.179Z,12.77
2022-10-22T03:57:41.201Z,11.27
2022-10-22T04:00:08.928Z,11.97
2022-10-22T04:02:35.809Z,11.27
2022-10-22T04:05:02.699Z,10.80
2022-10-22T04:07:29.505Z,10.10
2022-10-22T04:09:56.242Z,10.53
2022-10-22T04:12:23.013Z,8.87
2022-10-22T04:14:49.697Z,10.00
2022-10-22T04:17:16.546Z,9.67
2022-10-22T04:19:43.380Z,9.20
2022-10-22T04:22:10.132Z,13.43
2022-10-22T04:24:37.007Z,10.73
2022-10-22T04:27:04.045Z,10.07
2022-10-22T04:29:30.746Z,9.53
2022-10-22T04:31:57.507Z,10.10
2022-10-22T04:34:28.633Z,9.70
2022-10-22T04:36:55.812Z,9.23
2022-10-22T04:39:22.561Z,10.97
2022-10-22T04:41:49.387Z,9.43
2022-10-22T04:44:18.073Z,9.63
2022-10-22T04:46:45.777Z,10.40
2022-10-22T04:49:12.652Z,12.93
2022-10-22T04:51:39.534Z,11.67
2022-10-22T04:54:06.463Z,10.80
2022-10-22T04:56:33.542Z,12.30
2022-10-22T04:59:03.386Z,11.27
2022-10-22T05:01:35.800Z,11.47
2022-10-22T05:04:07.224Z,9.50
2022-10-22T05:06:36.109Z,9.20
2022-10-22T05:09:06.555Z,10.10
2022-10-22T05:11:35.958Z,12.00
2022-10-22T05:14:04.630Z,9.77
2022-10-22T05:16:32.487Z,9.07
2022-10-22T05:19:00.847Z,8.80
2022-10-22T05:21:28.486Z,10.47
2022-10-22T05:23:56.182Z,11.07
2022-10-22T05:26:25.038Z,9.23
2022-10-22T05:28:51.952Z,12.13
2022-10-22T05:31:19.750Z,9.10
2022-10-22T05:33:47.094Z,9.63
2022-10-22T05:36:16.927Z,10.57
2022-10-22T05:38:44.242Z,8.33
2022-10-22T05:41:14.235Z,8.77
2022-10-22T05:43:41.249Z,8.20
2022-10-22T05:46:10.847Z,10.87
2022-10-22T05:48:37.909Z,8.43
2022-10-22T05:51:10.214Z,11.53
2022-10-22T05:53:39.429Z,10.10
2022-10-22T05:56:16.453Z,9.10
2022-10-22T05:58:44.489Z,13.50
2022-10-22T06:01:15.863Z,9.47
2022-10-22T06:03:42.970Z,10.83
2022-10-22T06:06:34.110Z,11.10
2022-10-22T06:09:22.709Z,9.73
2022-10-22T06:11:50.743Z,11.70
2022-10-22T06:14:18.252Z,9.13
2022-10-22T06:16:45.152Z,11.87
2022-10-22T06:19:13.455Z,9.50
2022-10-22T06:21:40.315Z,8.97
2022-10-22T06:24:07.812Z,10.07
2022-10-22T06:26:34.588Z,12.40
2022-10-22T06:29:01.729Z,11.17
2022-10-22T06:31:29.662Z,10.83
2022-10-22T06:33:59.485Z,12.43
2022-10-22T06:36:26.234Z,9.73
2022-10-22T06:38:56.109Z,12.17
2022-10-22T06:41:27.046Z,11.10
2022-10-22T06:43:57.567Z,11.63
2022-10-22T06:46:25.898Z,12.50
2022-10-22T06:48:57.558Z,13.40
2022-10-22T06:51:25.181Z,11.27
2022-10-22T06:53:52.992Z,10.53
2022-10-22T06:56:22.328Z,9.33
2022-10-22T06:58:50.322Z,9.40
2022-10-22T07:01:19.538Z,11.80
2022-10-22T07:03:46.937Z,12.93
2022-10-22T07:06:14.980Z,13.87
2022-10-22T07:08:42.285Z,12.23
2022-10-22T07:11:23.766Z,9.90
2022-10-22T07:13:51.152Z,11.67
2022-10-22T07:16:18.581Z,16.10
2022-10-22T07:18:46.742Z,11.07
2022-10-22T07:21:15.200Z,10.43
2022-10-22T07:23:42.500Z,10.30
2022-10-22T07:26:09.444Z,11.90
2022-10-22T07:28:39.758Z,13.47
2022-10-22T07:31:08.367Z,12.13
2022-10-22T07:33:35.825Z,10.93
2022-10-22T07:36:05.248Z,16.27
2022-10-22T07:38:32.173Z,14.87
2022-10-22T07:40:59.308Z,13.97
2022-10-22T07:43:26.268Z,13.37
2022-10-22T07:45:55.636Z,14.27
2022-10-22T07:48:23.589Z,11.70
2022-10-22T07:50:51.561Z,11.73
2022-10-22T07:53:19.002Z,14.77
2022-10-22T07:55:49.041Z,12.30
2022-10-22T07:58:16.299Z,22.27
2022-10-22T08:00:43.050Z,15.50
2022-10-22T08:03:14.088Z,16.70
2022-10-22T08:05:43.691Z,16.83
2022-10-22T08:08:11.928Z,10.93
2022-10-22T08:10:38.981Z,14.10
2022-10-22T08:13:06.292Z,18.33
2022-10-22T08:15:33.041Z,10.80
2022-10-22T08:17:59.763Z,11.53
2022-10-22T08:20:26.657Z,10.50
2022-10-22T08:22:53.474Z,11.37
2022-10-22T08:25:20.318Z,11.40
2022-10-22T08:27:47.099Z,9.17
2022-10-22T08:30:14.292Z,13.70
2022-10-22T08:32:41.752Z,13.07
2022-10-22T08:35:08.721Z,10.33
2022-10-22T08:37:35.911Z,10.80
2022-10-22T08:40:04.472Z,10.53
2022-10-22T08:42:58.917Z,11.10
2022-10-22T08:45:36.588Z,7.37
2022-10-22T08:48:13.974Z,9.00
2022-10-22T08:50:47.555Z,8.70
2022-10-22T08:53:40.841Z,8.23
2022-10-22T08:56:07.623Z,9.13
2022-10-22T08:58:34.317Z,11.17
2022-10-22T09:01:13.015Z,8.67
2022-10-22T09:04:07.174Z,6.17
2022-10-22T09:06:36.519Z,8.40
2022-10-22T09:09:17.478Z,10.23
2022-10-22T09:11:49.977Z,7.90
2022-10-22T09:14:19.367Z,9.50
2022-10-22T09:17:12.265Z,8.93
2022-10-22T09:19:45.005Z,12.27
2022-10-22T09:22:17.331Z,9.53
2022-10-22T09:25:14.892Z,7.07
2022-10-22T09:27:42.174Z,11.97
2022-10-22T09:30:24.280Z,6.50
2022-10-22T09:33:01.982Z,7.07
2022-10-22T09:35:28.849Z,7.00
2022-10-22T09:37:56.793Z,8.80
2022-10-22T09:40:23.776Z,5.97
2022-10-22T09:42:50.467Z,7.20
2022-10-22T09:45:25.325Z,9.33
2022-10-22T09:48:11.286Z,10.47
2022-10-22T09:51:07.045Z,6.60
2022-10-22T09:53:43.580Z,13.30
2022-10-22T09:56:28.497Z,10.10
2022-10-22T09:58:58.784Z,6.43
2022-10-22T10:01:28.837Z,8.33
2022-10-22T10:04:09.779Z,8.60
2022-10-22T10:06:41.316Z,8.00
2022-10-22T10:09:28.870Z,8.13
2022-10-22T10:12:12.494Z,10.30
2022-10-22T10:15:03.058Z,6.83
2022-10-22T10:17:48.670Z,7.90
2022-10-22T10:20:21.382Z,10.90
2022-10-22T10:23:25.560Z,11.97
2022-10-22T10:26:24.555Z,5.97
2022-10-22T10:29:12.439Z,4.97
2022-10-22T10:31:45.157Z,7.97
2022-10-22T10:34:42.425Z,5.07
2022-10-22T10:37:12.202Z,9.33
2022-10-22T10:40:16.405Z,8.00
2022-10-22T10:42:51.507Z,8.97
2022-10-22T10:45:39.885Z,6.80
2022-10-22T10:48:32.936Z,7.00
2022-10-22T10:51:06.401Z,7.20
2022-10-22T10:54:00.321Z,5.77
2022-10-22T10:56:51.655Z,5.80
2022-10-22T10:59:30.144Z,8.07
2022-10-22T11:02:10.578Z,5.27
2022-10-22T11:05:07.112Z,5.97
2022-10-22T11:07:52.326Z,6.53
2022-10-22T11:11:07.663Z,8.33
2022-10-22T11:13:37.066Z,3.97
2022-10-22T11:16:42.459Z,7.47
2022-10-22T11:19:46.191Z,6.37
2022-10-22T11:22:34.416Z,7.67
2022-10-22T11:25:13.312Z,5.63
2022-10-22T11:27:51.836Z,8.47
2022-10-22T11:30:23.982Z,12.70
2022-10-22T11:32:57.519Z,6.40
2022-10-22T11:35:44.002Z,4.97
2022-10-22T11:38:17.659Z,9.60
2022-10-22T11:41:11.119Z,4.63
2022-10-22T11:44:05.696Z,8.90
2022-10-22T11:46:43.555Z,6.20
2022-10-22T11:49:12.971Z,5.77
2022-10-22T11:51:41.939Z,4.50
2022-10-22T11:54:44.804Z,7.93
2022-10-22T11:57:21.868Z,6.17
2022-10-22T11:59:53.956Z,6.03
2022-10-22T12:02:30.711Z,6.57
2022-10-22T12:05:33.661Z,12.37
2022-10-22T12:08:06.273Z,8.07
2022-10-22T12:11:01.242Z,5.63
2022-10-22T12:13:31.755Z,6.90
2022-10-22T12:16:02.519Z,5.53
2022-10-22T12:18:42.340Z,5.60
2022-10-22T12:21:14.369Z,8.07
2022-10-22T12:23:41.551Z,7.67
2022-10-22T12:28:59.553Z,5.20
2022-10-22T12:31:26.854Z,7.57
2022-10-22T12:34:00.529Z,8.37
2022-10-22T12:36:29.839Z,7.67
2022-10-22T12:39:00.604Z,9.53
2022-10-22T12:41:35.262Z,8.97
2022-10-22T12:44:04.512Z,6.07
2022-10-22T12:46:34.155Z,10.27
2022-10-22T12:49:02.945Z,7.80
2022-10-22T12:51:30.075Z,8.90
2022-10-22T12:54:01.979Z,8.73
2022-10-22T12:56:37.209Z,9.57
2022-10-22T12:59:25.946Z,6.60
2022-10-22T13:01:53.860Z,13.43
2022-10-22T13:04:31.764Z,5.57
2022-10-22T13:07:04.183Z,10.60
2022-10-22T13:09:58.940Z,7.63
2022-10-22T13:12:36.423Z,7.50
2022-10-22T13:15:31.792Z,9.00
2022-10-22T13:18:19.805Z,10.40
2022-10-22T13:20:58.819Z,9.13
2022-10-22T13:23:28.280Z,6.53
2022-10-22T13:26:14.177Z,10.27
2022-10-22T13:28:41.818Z,8.93
2022-10-22T13:31:32.158Z,15.30
2022-10-22T13:34:05.011Z,8.77
2022-10-22T13:36:36.309Z,8.33
2022-10-22T13:39:04.784Z,28.50
2022-10-22T13:41:35.192Z,32.43
2022-10-22T13:44:02.092Z,36.57
2022-10-22T13:46:29.499Z,21.97
2022-10-22T13:48:56.799Z,19.83
2022-10-22T13:51:29.837Z,24.20
2022-10-22T13:53:56.837Z,18.20
2022-10-22T13:56:24.031Z,15.20
2022-10-22T13:58:50.993Z,13.77
2022-10-22T14:01:23.812Z,13.97
2022-10-22T14:03:54.323Z,15.23
2022-10-22T14:06:22.589Z,10.00
2022-10-22T14:08:58.475Z,11.40
2022-10-22T14:11:27.305Z,11.67
2022-10-22T14:13:54.905Z,9.97
2022-10-22T14:16:25.867Z,4.87
2022-10-22T14:18:53.786Z,4.30
2022-10-22T14:21:20.730Z,6.80
2022-10-22T14:23:49.948Z,8.80
2022-10-22T14:26:33.036Z,4.77
2022-10-22T14:29:11.335Z,9.23
2022-10-22T14:31:43.378Z,14.43
2022-10-22T14:34:13.124Z,10.57
2022-10-22T14:36:39.879Z,7.97
2022-10-22T14:39:06.605Z,7.13
2022-10-22T14:41:33.556Z,8.97
2022-10-22T14:44:00.572Z,8.50
2022-10-22T14:46:27.338Z,6.93
2022-10-22T14:48:54.065Z,6.63
2022-10-22T14:51:21.981Z,6.97
2022-10-22T14:53:48.936Z,5.63
2022-10-22T14:56:18.523Z,7.23
2022-10-22T14:58:45.740Z,8.67
2022-10-22T15:01:13.282Z,9.77
2022-10-22T15:03:40.060Z,5.63
2022-10-22T15:06:07.648Z,6.47
2022-10-22T15:08:34.526Z,9.40
2022-10-22T15:11:06.623Z,3.70
2022-10-22T15:13:34.273Z,9.57
2022-10-22T15:16:01.652Z,8.87
2022-10-22T15:18:28.571Z,8.77
2022-10-22T15:21:01.117Z,5.03
2022-10-22T15:23:28.678Z,9.00
2022-10-22T15:25:56.340Z,6.93
2022-10-22T15:28:23.767Z,6.53
2022-10-22T15:30:55.755Z,7.60
2022-10-22T15:33:22.591Z,6.50
2022-10-22T15:35:49.366Z,4.97
2022-10-22T15:38:16.254Z,7.90
2022-10-22T15:40:43.068Z,7.70
2022-10-22T15:43:10.001Z,7.70
2022-10-22T15:45:36.939Z,8.90
2022-10-22T15:48:04.093Z,12.63
2022-10-22T15:50:31.176Z,7.20
2022-10-22T15:52:57.903Z,5.10
2022-10-22T15:55:24.662Z,8.40
2022-10-22T15:57:57.163Z,9.37
2022-10-22T16:00:26.140Z,6.20
2022-10-22T16:02:54.540Z,9.43
2022-10-22T16:05:21.260Z,9.53
2022-10-22T16:07:48.044Z,11.37
2022-10-22T16:10:14.862Z,10.73
2022-10-22T16:12:42.481Z,13.33
2022-10-22T16:15:09.988Z,7.97
2022-10-22T16:17:36.749Z,7.93
2022-10-22T16:20:03.862Z,9.33
2022-10-22T16:22:30.652Z,9.80
2022-10-22T16:24:57.440Z,5.87
2022-10-22T16:27:24.192Z,6.40
2022-10-22T16:29:50.946Z,7.63
2022-10-22T16:32:17.892Z,7.17
2022-10-22T16:34:44.678Z,5.30
2022-10-22T16:37:11.433Z,8.90
2022-10-22T16:39:38.527Z,5.73
2022-10-22T16:42:05.381Z,11.03
2022-10-22T16:44:32.114Z,8.60
2022-10-22T16:46:58.803Z,6.07
2022-10-22T16:49:25.592Z,9.50
2022-10-22T16:51:52.354Z,7.97
2022-10-22T16:54:21.551Z,8.33
2022-10-22T16:56:48.340Z,6.27
2022-10-22T16:59:15.040Z,8.77
2022-10-22T17:01:41.830Z,6.50
2022-10-22T17:04:09.273Z,8.83
2022-10-22T17:06:36.137Z,8.20
2022-10-22T17:09:03.251Z,8.80
2022-10-22T17:11:34.779Z,6.90
2022-10-22T17:14:02.795Z,7.40
2022-10-22T17:16:30.198Z,9.07
2022-10-22T17:18:57.729Z,8.50
2022-10-22T17:21:25.238Z,8.30
2022-10-22T17:23:58.347Z,7.80
2022-10-22T17:26:26.959Z,13.00
2022-10-22T17:28:54.669Z,14.63
2022-10-22T17:31:24.907Z,17.47
2022-10-22T17:33:54.251Z,21.27
2022-10-22T17:36:22.906Z,19.50
2022-10-22T17:38:52.701Z,22.23
2022-10-22T17:41:22.861Z,30.87
2022-10-22T17:43:49.818Z,25.00
2022-10-22T17:46:22.472Z,20.03
2022-10-22T17:48:53.228Z,21.77
2022-10-22T17:51:20.988Z,16.27
2022-10-22T17:53:50.093Z,13.00
2022-10-22T17:56:22.659Z,15.23
2022-10-22T17:58:49.676Z,12.60
2022-10-22T18:01:22.139Z,17.03
2022-10-22T18:03:49.142Z,12.13
2022-10-22T18:06:16.120Z,13.13
2022-10-22T18:08:43.302Z,12.43
2022-10-22T18:11:19.664Z,13.93
2022-10-22T18:13:51.020Z,16.23
2022-10-22T18:16:18.630Z,18.50
2022-10-22T18:18:47.560Z,18.53
2022-10-22T18:21:15.644Z,19.13
2022-10-22T18:23:42.951Z,19.70
2022-10-22T18:26:09.717Z,22.10
2022-10-22T18:28:36.776Z,15.30
2022-10-22T18:31:08.396Z,18.37
2022-10-22T18:33:36.989Z,17.70
2022-10-22T18:36:09.698Z,14.67
2022-10-22T18:38:39.811Z,15.63
2022-10-22T18:41:08.796Z,13.20
2022-10-22T18:43:36.023Z,17.93
2022-10-22T18:46:06.592Z,15.87
2022-10-22T18:48:36.753Z,13.13
2022-10-22T18:51:06.964Z,16.03
2022-10-22T18:53:35.050Z,15.20
2022-10-22T18:56:04.142Z,13.73
2022-10-22T18:58:30.906Z,13.63
2022-10-22T19:00:57.655Z,18.30
2022-10-22T19:03:24.416Z,16.03
2022-10-22T19:05:53.838Z,17.60
2022-10-22T19:08:21.591Z,20.17
2022-10-22T19:10:48.663Z,17.40
2022-10-22T19:13:17.636Z,16.20
2022-10-22T19:15:44.635Z,12.93
2022-10-22T19:18:12.983Z,16.97
2022-10-22T19:20:39.675Z,18.87
2022-10-22T19:23:07.540Z,13.43
2022-10-22T19:25:35.243Z,18.77
2022-10-22T19:28:02.035Z,20.33
2022-10-22T19:30:28.744Z,16.97
2022-10-22T19:32:55.524Z,20.37
2022-10-22T19:35:22.485Z,15.67
2022-10-22T19:37:49.606Z,19.63
2022-10-22T19:40:16.485Z,18.60
2022-10-22T19:42:46.969Z,19.43
2022-10-22T19:45:13.712Z,16.03
2022-10-22T19:47:42.113Z,19.37
2022-10-22T19:50:09.016Z,19.27
2022-10-22T19:52:35.787Z,16.20
2022-10-22T19:55:02.579Z,16.97
2022-10-22T19:57:30.176Z,13.67
2022-10-22T19:59:56.921Z,13.53
2022-10-22T20:02:23.689Z,16.33
2022-10-22T20:04:50.621Z,16.67
2022-10-22T20:07:17.460Z,15.13
2022-10-22T20:09:44.249Z,14.97
2022-10-22T20:12:11.181Z,18.50
2022-10-22T20:14:37.917Z,14.27
2022-10-22T20:17:04.834Z,14.73
2022-10-22T20:19:32.558Z,10.77
2022-10-22T20:24:31.890Z,12.80
2022-10-22T20:26:58.614Z,14.53
2022-10-22T20:29:25.379Z,11.67
2022-10-22T20:31:52.227Z,12.90
2022-10-22T20:34:18.949Z,14.30
2022-10-22T20:36:45.898Z,14.53
2022-10-22T20:39:15.108Z,10.77
2022-10-22T20:41:41.967Z,13.50
2022-10-22T20:44:13.199Z,13.00
2022-10-22T20:46:39.924Z,14.07
2022-10-22T20:49:10.273Z,10.17
2022-10-22T20:51:38.168Z,12.33
2022-10-22T20:54:07.302Z,13.47
2022-10-22T20:56:35.465Z,13.50
2022-10-22T20:59:05.580Z,13.07
2022-10-22T21:01:35.931Z,14.80
2022-10-22T21:04:02.995Z,14.50
2022-10-22T21:06:30.246Z,14.70
2022-10-22T21:08:57.058Z,13.13
2022-10-22T21:11:24.104Z,15.53
2022-10-22T21:13:51.451Z,14.20
2022-10-22T21:16:19.535Z,16.33
2022-10-22T21:18:47.347Z,13.13
2022-10-22T21:21:16.943Z,16.60
2022-10-22T21:23:43.745Z,14.77
2022-10-22T21:26:10.473Z,20.43
2022-10-22T21:28:37.914Z,14.03
2022-10-22T21:31:07.450Z,21.43
2022-10-22T21:33:38.852Z,17.33
2022-10-22T21:36:06.691Z,16.20
2022-10-22T21:38:34.552Z,18.87
2022-10-22T21:41:08.575Z,17.20
2022-10-22T21:43:37.945Z,16.83
2022-10-22T21:46:09.756Z,13.40
2022-10-22T21:48:37.853Z,15.53
2022-10-22T21:51:10.415Z,18.60
2022-10-22T21:53:37.498Z,16.00
2022-10-22T21:56:05.316Z,14.53
2022-10-22T21:58:37.107Z,14.83
2022-10-22T22:01:04.000Z,18.00
2022-10-22T22:03:30.894Z,16.30
2022-10-22T22:06:03.412Z,13.00
2022-10-22T22:08:30.993Z,16.17
2022-10-22T22:11:06.723Z,17.37
2022-10-22T22:13:34.013Z,16.47
2022-10-22T22:16:02.713Z,17.97
2022-10-22T22:18:30.021Z,13.07
2022-10-22T22:20:57.722Z,12.97
2022-10-22T22:23:24.670Z,17.67
2022-10-22T22:25:51.576Z,17.60
2022-10-22T22:28:18.341Z,15.60
2022-10-22T22:30:45.071Z,17.97
2022-10-22T22:33:12.523Z,15.00
2022-10-22T22:38:10.873Z,14.73
2022-10-22T22:40:41.219Z,13.53
2022-10-22T22:43:08.906Z,14.70
2022-10-22T22:45:35.925Z,15.77
2022-10-22T22:48:03.595Z,13.93
2022-10-22T22:50:30.807Z,14.40
2022-10-22T22:52:57.564Z,15.47
2022-10-22T22:55:24.630Z,13.20
2022-10-22T22:57:51.364Z,17.00
2022-10-22T23:00:18.283Z,17.17
2022-10-22T23:02:45.204Z,16.57
2022-10-22T23:05:12.100Z,17.43
2022-10-22T23:07:38.875Z,17.57
2022-10-22T23:10:06.063Z,13.00
2022-10-22T23:12:32.817Z,12.73
2022-10-22T23:15:02.120Z,18.80
2022-10-22T23:17:28.947Z,14.47
2022-10-22T23:19:55.683Z,11.87
2022-10-22T23:22:22.451Z,12.30
2022-10-22T23:24:49.147Z,15.70
2022-10-22T23:27:15.888Z,14.17
2022-10-22T23:29:42.597Z,10.47
2022-10-22T23:32:16.783Z,16.17
2022-10-22T23:34:43.831Z,14.90
2022-10-22T23:37:12.299Z,13.03
2022-10-22T23:39:39.053Z,14.53
2022-10-22T23:42:05.824Z,12.27
2022-10-22T23:44:32.744Z,20.17
2022-10-22T23:46:59.571Z,12.43
2022-10-22T23:49:26.319Z,12.67
2022-10-22T23:51:53.098Z,12.67
2022-10-22T23:54:19.903Z,11.10
2022-10-22T23:56:46.999Z,13.17
